sensor_id;sensor_type;location;lat;lon;timestamp;P1;durP1;ratioP1;P2;durP2;ratioP2
20830;SDS011;10576;53.556;9.868;2023-04-01T00:00:29;9.90;;;5.82;;
20830;SDS011;10576;53.556;9.868;2023-04-01T00:02:54;9.70;;;6.00;;
20830;SDS011;10576;53.556;9.868;2023-04-01T00:05:20;8.30;;;5.88;;
20830;SDS011;10576;53.556;9.868;2023-04-01T00:07:46;8.07;;;5.72;;
20830;SDS011;10576;53.556;9.868;2023-04-01T00:10:12;10.45;;;6.05;;
20830;SDS011;10576;53.556;9.868;2023-04-01T00:12:39;9.40;;;5.80;;
20830;SDS011;10576;53.556;9.868;2023-04-01T00:15:06;9.57;;;6.10;;
20830;SDS011;10576;53.556;9.868;2023-04-01T00:17:33;9.45;;;6.03;;
20830;SDS011;10576;53.556;9.868;2023-04-01T00:19:59;7.68;;;5.50;;
20830;SDS011;10576;53.556;9.868;2023-04-01T00:22:26;8.52;;;5.47;;
20830;SDS011;10576;53.556;9.868;2023-04-01T00:24:52;9.55;;;5.88;;
20830;SDS011;10576;53.556;9.868;2023-04-01T00:27:18;9.45;;;6.03;;
20830;SDS011;10576;53.556;9.868;2023-04-01T00:29:45;9.35;;;6.05;;
20830;SDS011;10576;53.556;9.868;2023-04-01T00:32:13;8.13;;;6.13;;
20830;SDS011;10576;53.556;9.868;2023-04-01T00:34:40;9.23;;;5.97;;
20830;SDS011;10576;53.556;9.868;2023-04-01T00:37:06;9.85;;;6.30;;
20830;SDS011;10576;53.556;9.868;2023-04-01T00:39:33;9.32;;;5.70;;
20830;SDS011;10576;53.556;9.868;2023-04-01T00:42:00;8.80;;;6.00;;
20830;SDS011;10576;53.556;9.868;2023-04-01T00:44:28;9.57;;;6.13;;
20830;SDS011;10576;53.556;9.868;2023-04-01T00:46:56;8.53;;;6.00;;
20830;SDS011;10576;53.556;9.868;2023-04-01T00:49:22;8.70;;;6.10;;
20830;SDS011;10576;53.556;9.868;2023-04-01T00:51:52;10.82;;;6.00;;
20830;SDS011;10576;53.556;9.868;2023-04-01T00:54:21;9.82;;;5.97;;
20830;SDS011;10576;53.556;9.868;2023-04-01T01:02:24;9.88;;;6.30;;
20830;SDS011;10576;53.556;9.868;2023-04-01T01:04:50;10.60;;;6.30;;
20830;SDS011;10576;53.556;9.868;2023-04-01T01:10:22;10.18;;;6.47;;
20830;SDS011;10576;53.556;9.868;2023-04-01T01:12:54;11.13;;;6.20;;
20830;SDS011;10576;53.556;9.868;2023-04-01T01:16:06;8.85;;;6.60;;
20830;SDS011;10576;53.556;9.868;2023-04-01T01:18:51;11.40;;;6.35;;
20830;SDS011;10576;53.556;9.868;2023-04-01T01:24:36;10.00;;;6.50;;
20830;SDS011;10576;53.556;9.868;2023-04-01T01:27:09;8.95;;;6.35;;
20830;SDS011;10576;53.556;9.868;2023-04-01T01:37:31;11.38;;;6.15;;
20830;SDS011;10576;53.556;9.868;2023-04-01T01:39:59;9.43;;;6.25;;
20830;SDS011;10576;53.556;9.868;2023-04-01T01:42:28;9.48;;;6.20;;
20830;SDS011;10576;53.556;9.868;2023-04-01T01:44:56;8.65;;;6.05;;
20830;SDS011;10576;53.556;9.868;2023-04-01T01:47:25;8.48;;;6.25;;
20830;SDS011;10576;53.556;9.868;2023-04-01T01:49:51;10.47;;;6.13;;
20830;SDS011;10576;53.556;9.868;2023-04-01T01:52:19;8.35;;;6.28;;
20830;SDS011;10576;53.556;9.868;2023-04-01T01:54:47;9.77;;;5.53;;
20830;SDS011;10576;53.556;9.868;2023-04-01T01:57:17;9.37;;;5.87;;
20830;SDS011;10576;53.556;9.868;2023-04-01T01:59:48;8.77;;;6.10;;
20830;SDS011;10576;53.556;9.868;2023-04-01T02:02:15;9.03;;;5.87;;
20830;SDS011;10576;53.556;9.868;2023-04-01T02:04:43;9.45;;;5.82;;
20830;SDS011;10576;53.556;9.868;2023-04-01T02:07:12;8.38;;;6.10;;
20830;SDS011;10576;53.556;9.868;2023-04-01T02:09:43;9.38;;;6.00;;
20830;SDS011;10576;53.556;9.868;2023-04-01T02:12:09;9.95;;;5.75;;
20830;SDS011;10576;53.556;9.868;2023-04-01T02:17:25;10.05;;;5.75;;
20830;SDS011;10576;53.556;9.868;2023-04-01T02:22:54;7.20;;;5.55;;
20830;SDS011;10576;53.556;9.868;2023-04-01T02:25:24;7.90;;;5.70;;
20830;SDS011;10576;53.556;9.868;2023-04-01T02:27:52;9.55;;;5.80;;
20830;SDS011;10576;53.556;9.868;2023-04-01T02:30:20;10.13;;;6.00;;
20830;SDS011;10576;53.556;9.868;2023-04-01T02:32:46;8.20;;;5.32;;
20830;SDS011;10576;53.556;9.868;2023-04-01T02:35:13;7.50;;;5.57;;
20830;SDS011;10576;53.556;9.868;2023-04-01T02:37:42;9.70;;;5.65;;
20830;SDS011;10576;53.556;9.868;2023-04-01T02:40:11;10.90;;;6.15;;
20830;SDS011;10576;53.556;9.868;2023-04-01T02:42:38;9.15;;;5.82;;
20830;SDS011;10576;53.556;9.868;2023-04-01T02:45:04;9.55;;;5.68;;
20830;SDS011;10576;53.556;9.868;2023-04-01T02:47:31;10.87;;;6.00;;
20830;SDS011;10576;53.556;9.868;2023-04-01T02:49:57;8.20;;;6.25;;
20830;SDS011;10576;53.556;9.868;2023-04-01T02:52:27;9.65;;;6.05;;
20830;SDS011;10576;53.556;9.868;2023-04-01T02:54:54;8.18;;;5.88;;
20830;SDS011;10576;53.556;9.868;2023-04-01T02:57:20;10.33;;;6.10;;
20830;SDS011;10576;53.556;9.868;2023-04-01T02:59:46;6.93;;;5.90;;
20830;SDS011;10576;53.556;9.868;2023-04-01T03:02:13;8.40;;;5.90;;
20830;SDS011;10576;53.556;9.868;2023-04-01T03:04:39;9.00;;;6.30;;
20830;SDS011;10576;53.556;9.868;2023-04-01T03:07:05;7.30;;;5.63;;
20830;SDS011;10576;53.556;9.868;2023-04-01T03:09:30;10.03;;;6.23;;
20830;SDS011;10576;53.556;9.868;2023-04-01T03:11:56;8.27;;;5.88;;
20830;SDS011;10576;53.556;9.868;2023-04-01T03:14:22;8.60;;;6.50;;
20830;SDS011;10576;53.556;9.868;2023-04-01T03:16:48;9.07;;;6.10;;
20830;SDS011;10576;53.556;9.868;2023-04-01T03:19:13;10.27;;;6.43;;
20830;SDS011;10576;53.556;9.868;2023-04-01T03:21:39;10.13;;;6.37;;
20830;SDS011;10576;53.556;9.868;2023-04-01T03:24:05;9.40;;;5.87;;
20830;SDS011;10576;53.556;9.868;2023-04-01T03:26:31;10.70;;;6.60;;
20830;SDS011;10576;53.556;9.868;2023-04-01T03:28:57;11.38;;;6.90;;
20830;SDS011;10576;53.556;9.868;2023-04-01T03:31:23;10.17;;;6.40;;
20830;SDS011;10576;53.556;9.868;2023-04-01T03:33:49;9.25;;;6.43;;
20830;SDS011;10576;53.556;9.868;2023-04-01T03:36:15;9.23;;;6.77;;
20830;SDS011;10576;53.556;9.868;2023-04-01T03:38:41;11.17;;;6.63;;
20830;SDS011;10576;53.556;9.868;2023-04-01T03:41:07;9.57;;;6.47;;
20830;SDS011;10576;53.556;9.868;2023-04-01T03:43:36;11.00;;;6.35;;
20830;SDS011;10576;53.556;9.868;2023-04-01T03:46:01;10.33;;;6.13;;
20830;SDS011;10576;53.556;9.868;2023-04-01T03:48:27;8.70;;;6.63;;
20830;SDS011;10576;53.556;9.868;2023-04-01T03:50:52;9.40;;;6.63;;
20830;SDS011;10576;53.556;9.868;2023-04-01T03:53:18;7.63;;;6.60;;
20830;SDS011;10576;53.556;9.868;2023-04-01T03:55:44;9.23;;;7.00;;
20830;SDS011;10576;53.556;9.868;2023-04-01T03:58:10;9.52;;;7.30;;
20830;SDS011;10576;53.556;9.868;2023-04-01T04:00:36;9.88;;;7.07;;
20830;SDS011;10576;53.556;9.868;2023-04-01T04:03:01;9.90;;;7.60;;
20830;SDS011;10576;53.556;9.868;2023-04-01T04:05:27;10.18;;;7.50;;
20830;SDS011;10576;53.556;9.868;2023-04-01T04:07:53;11.77;;;8.50;;
20830;SDS011;10576;53.556;9.868;2023-04-01T04:10:19;12.90;;;8.32;;
20830;SDS011;10576;53.556;9.868;2023-04-01T04:12:45;11.90;;;8.45;;
20830;SDS011;10576;53.556;9.868;2023-04-01T04:15:11;13.93;;;8.60;;
20830;SDS011;10576;53.556;9.868;2023-04-01T04:17:37;11.80;;;8.10;;
20830;SDS011;10576;53.556;9.868;2023-04-01T04:20:03;12.15;;;9.05;;
20830;SDS011;10576;53.556;9.868;2023-04-01T04:22:29;12.13;;;8.50;;
20830;SDS011;10576;53.556;9.868;2023-04-01T04:24:54;13.77;;;8.70;;
20830;SDS011;10576;53.556;9.868;2023-04-01T04:27:20;11.77;;;8.47;;
20830;SDS011;10576;53.556;9.868;2023-04-01T04:29:46;12.67;;;8.80;;
20830;SDS011;10576;53.556;9.868;2023-04-01T04:32:11;11.83;;;8.40;;
20830;SDS011;10576;53.556;9.868;2023-04-01T04:34:37;10.27;;;7.83;;
20830;SDS011;10576;53.556;9.868;2023-04-01T04:37:03;12.40;;;8.10;;
20830;SDS011;10576;53.556;9.868;2023-04-01T04:39:28;11.10;;;7.90;;
20830;SDS011;10576;53.556;9.868;2023-04-01T04:41:54;11.38;;;8.10;;
20830;SDS011;10576;53.556;9.868;2023-04-01T04:44:20;12.63;;;7.93;;
20830;SDS011;10576;53.556;9.868;2023-04-01T04:46:45;12.45;;;8.73;;
20830;SDS011;10576;53.556;9.868;2023-04-01T04:49:11;11.32;;;8.85;;
20830;SDS011;10576;53.556;9.868;2023-04-01T04:51:37;12.33;;;8.63;;
20830;SDS011;10576;53.556;9.868;2023-04-01T04:54:03;11.90;;;8.40;;
20830;SDS011;10576;53.556;9.868;2023-04-01T04:56:30;12.60;;;8.88;;
20830;SDS011;10576;53.556;9.868;2023-04-01T04:58:56;12.95;;;9.35;;
20830;SDS011;10576;53.556;9.868;2023-04-01T05:01:22;11.88;;;8.85;;
20830;SDS011;10576;53.556;9.868;2023-04-01T05:03:48;11.70;;;8.90;;
20830;SDS011;10576;53.556;9.868;2023-04-01T05:06:15;15.67;;;9.33;;
20830;SDS011;10576;53.556;9.868;2023-04-01T05:08:41;10.95;;;8.30;;
20830;SDS011;10576;53.556;9.868;2023-04-01T05:11:12;12.25;;;8.48;;
20830;SDS011;10576;53.556;9.868;2023-04-01T05:13:42;10.10;;;8.15;;
20830;SDS011;10576;53.556;9.868;2023-04-01T05:16:13;9.98;;;8.05;;
20830;SDS011;10576;53.556;9.868;2023-04-01T05:18:40;11.40;;;8.23;;
20830;SDS011;10576;53.556;9.868;2023-04-01T05:21:07;10.73;;;7.70;;
20830;SDS011;10576;53.556;9.868;2023-04-01T05:23:33;11.82;;;7.70;;
20830;SDS011;10576;53.556;9.868;2023-04-01T05:26:05;9.05;;;7.32;;
20830;SDS011;10576;53.556;9.868;2023-04-01T05:28:33;11.57;;;8.13;;
20830;SDS011;10576;53.556;9.868;2023-04-01T05:30:59;10.27;;;8.13;;
20830;SDS011;10576;53.556;9.868;2023-04-01T05:33:26;10.63;;;7.87;;
20830;SDS011;10576;53.556;9.868;2023-04-01T05:35:53;12.98;;;8.50;;
20830;SDS011;10576;53.556;9.868;2023-04-01T05:38:19;10.35;;;7.97;;
20830;SDS011;10576;53.556;9.868;2023-04-01T05:40:44;12.47;;;8.60;;
20830;SDS011;10576;53.556;9.868;2023-04-01T05:43:10;10.02;;;8.60;;
20830;SDS011;10576;53.556;9.868;2023-04-01T05:45:36;11.15;;;8.35;;
20830;SDS011;10576;53.556;9.868;2023-04-01T05:48:02;10.48;;;8.13;;
20830;SDS011;10576;53.556;9.868;2023-04-01T05:50:28;5.27;;;3.50;;
20830;SDS011;10576;53.556;9.868;2023-04-01T05:52:54;2.10;;;1.90;;
20830;SDS011;10576;53.556;9.868;2023-04-01T05:55:19;1.63;;;1.52;;
20830;SDS011;10576;53.556;9.868;2023-04-01T05:57:46;1.08;;;1.08;;
20830;SDS011;10576;53.556;9.868;2023-04-01T06:00:13;0.85;;;0.85;;
20830;SDS011;10576;53.556;9.868;2023-04-01T06:02:40;1.05;;;0.98;;
20830;SDS011;10576;53.556;9.868;2023-04-01T06:07:38;0.80;;;0.80;;
20830;SDS011;10576;53.556;9.868;2023-04-01T06:13:26;1.50;;;1.10;;
20830;SDS011;10576;53.556;9.868;2023-04-01T06:16:07;1.00;;;1.00;;
20830;SDS011;10576;53.556;9.868;2023-04-01T06:18:48;1.15;;;1.13;;
20830;SDS011;10576;53.556;9.868;2023-04-01T06:27:27;1.15;;;1.15;;
20830;SDS011;10576;53.556;9.868;2023-04-01T06:30:23;2.40;;;1.45;;
20830;SDS011;10576;53.556;9.868;2023-04-01T06:32:56;1.50;;;1.40;;
20830;SDS011;10576;53.556;9.868;2023-04-01T06:46:25;1.60;;;1.50;;
20830;SDS011;10576;53.556;9.868;2023-04-01T06:52:08;1.70;;;1.60;;
20830;SDS011;10576;53.556;9.868;2023-04-01T06:54:34;1.95;;;1.50;;
20830;SDS011;10576;53.556;9.868;2023-04-01T06:57:20;1.40;;;1.30;;
20830;SDS011;10576;53.556;9.868;2023-04-01T07:00:14;1.25;;;1.15;;
20830;SDS011;10576;53.556;9.868;2023-04-01T07:02:48;1.00;;;1.00;;
20830;SDS011;10576;53.556;9.868;2023-04-01T07:05:23;1.38;;;1.27;;
20830;SDS011;10576;53.556;9.868;2023-04-01T07:07:51;1.63;;;1.30;;
20830;SDS011;10576;53.556;9.868;2023-04-01T07:10:33;1.83;;;1.50;;
20830;SDS011;10576;53.556;9.868;2023-04-01T07:13:24;1.40;;;1.30;;
20830;SDS011;10576;53.556;9.868;2023-04-01T07:16:03;1.48;;;1.38;;
20830;SDS011;10576;53.556;9.868;2023-04-01T07:21:25;2.20;;;2.00;;
20830;SDS011;10576;53.556;9.868;2023-04-01T07:23:56;1.90;;;1.10;;
20830;SDS011;10576;53.556;9.868;2023-04-01T07:26:26;1.50;;;1.40;;
20830;SDS011;10576;53.556;9.868;2023-04-01T07:28:52;1.20;;;1.08;;
20830;SDS011;10576;53.556;9.868;2023-04-01T07:31:30;0.80;;;0.80;;
20830;SDS011;10576;53.556;9.868;2023-04-01T07:36:49;1.85;;;1.45;;
20830;SDS011;10576;53.556;9.868;2023-04-01T07:39:56;0.88;;;0.88;;
20830;SDS011;10576;53.556;9.868;2023-04-01T07:45:03;1.50;;;1.40;;
20830;SDS011;10576;53.556;9.868;2023-04-01T07:50:40;1.65;;;1.40;;
20830;SDS011;10576;53.556;9.868;2023-04-01T07:53:17;1.48;;;1.38;;
20830;SDS011;10576;53.556;9.868;2023-04-01T08:09:07;2.08;;;1.00;;
20830;SDS011;10576;53.556;9.868;2023-04-01T08:14:44;1.25;;;1.05;;
20830;SDS011;10576;53.556;9.868;2023-04-01T08:22:25;1.45;;;1.23;;
20830;SDS011;10576;53.556;9.868;2023-04-01T08:24:59;1.30;;;1.20;;
20830;SDS011;10576;53.556;9.868;2023-04-01T08:30:19;0.90;;;0.90;;
20830;SDS011;10576;53.556;9.868;2023-04-01T08:32:55;0.90;;;0.90;;
20830;SDS011;10576;53.556;9.868;2023-04-01T08:35:29;0.80;;;0.80;;
20830;SDS011;10576;53.556;9.868;2023-04-01T08:38:05;0.70;;;0.70;;
20830;SDS011;10576;53.556;9.868;2023-04-01T08:40:54;1.00;;;0.77;;
20830;SDS011;10576;53.556;9.868;2023-04-01T08:49:12;0.70;;;0.70;;
20830;SDS011;10576;53.556;9.868;2023-04-01T08:51:47;0.70;;;0.70;;
20830;SDS011;10576;53.556;9.868;2023-04-01T09:00:10;0.68;;;0.60;;
20830;SDS011;10576;53.556;9.868;2023-04-01T09:05:47;0.77;;;0.77;;
20830;SDS011;10576;53.556;9.868;2023-04-01T09:14:12;1.40;;;1.00;;
20830;SDS011;10576;53.556;9.868;2023-04-01T09:20:01;0.90;;;0.90;;
20830;SDS011;10576;53.556;9.868;2023-04-01T09:28:13;1.40;;;0.90;;
20830;SDS011;10576;53.556;9.868;2023-04-01T09:41:29;0.75;;;0.75;;
20830;SDS011;10576;53.556;9.868;2023-04-01T09:49:37;0.90;;;0.90;;
20830;SDS011;10576;53.556;9.868;2023-04-01T10:21:05;1.02;;;0.93;;
20830;SDS011;10576;53.556;9.868;2023-04-01T10:29:26;0.90;;;0.90;;
20830;SDS011;10576;53.556;9.868;2023-04-01T10:37:28;0.60;;;0.60;;
20830;SDS011;10576;53.556;9.868;2023-04-01T10:54:45;0.95;;;0.70;;
20830;SDS011;10576;53.556;9.868;2023-04-01T11:27:24;0.88;;;0.80;;
20830;SDS011;10576;53.556;9.868;2023-04-01T11:40:52;1.20;;;1.00;;
20830;SDS011;10576;53.556;9.868;2023-04-01T11:49:23;1.17;;;1.08;;
20830;SDS011;10576;53.556;9.868;2023-04-01T12:03:36;1.70;;;1.60;;
20830;SDS011;10576;53.556;9.868;2023-04-01T12:13:58;2.78;;;1.95;;
20830;SDS011;10576;53.556;9.868;2023-04-01T12:19:04;2.85;;;2.50;;
20830;SDS011;10576;53.556;9.868;2023-04-01T12:21:56;3.72;;;2.67;;
20830;SDS011;10576;53.556;9.868;2023-04-01T12:24:47;4.38;;;2.67;;
20830;SDS011;10576;53.556;9.868;2023-04-01T12:41:14;3.60;;;2.97;;
20830;SDS011;10576;53.556;9.868;2023-04-01T12:52:26;3.70;;;3.07;;
20830;SDS011;10576;53.556;9.868;2023-04-01T13:09:04;4.43;;;3.20;;
20830;SDS011;10576;53.556;9.868;2023-04-01T13:11:56;4.03;;;3.22;;
20830;SDS011;10576;53.556;9.868;2023-04-01T13:20:43;3.08;;;2.70;;
20830;SDS011;10576;53.556;9.868;2023-04-01T13:28:38;3.28;;;2.58;;
20830;SDS011;10576;53.556;9.868;2023-04-01T13:42:54;4.10;;;2.60;;
20830;SDS011;10576;53.556;9.868;2023-04-01T13:45:26;4.15;;;2.85;;
20830;SDS011;10576;53.556;9.868;2023-04-01T13:59:40;3.33;;;2.67;;
20830;SDS011;10576;53.556;9.868;2023-04-01T14:13:15;6.00;;;3.85;;
20830;SDS011;10576;53.556;9.868;2023-04-01T14:21:27;3.85;;;3.03;;
20830;SDS011;10576;53.556;9.868;2023-04-01T14:27:40;3.92;;;3.17;;
20830;SDS011;10576;53.556;9.868;2023-04-01T14:50:47;6.13;;;3.80;;
20830;SDS011;10576;53.556;9.868;2023-04-01T14:55:52;6.20;;;4.00;;
20830;SDS011;10576;53.556;9.868;2023-04-01T14:58:21;6.10;;;4.03;;
20830;SDS011;10576;53.556;9.868;2023-04-01T15:01:06;5.00;;;3.38;;
20830;SDS011;10576;53.556;9.868;2023-04-01T15:03:49;5.13;;;3.58;;
20830;SDS011;10576;53.556;9.868;2023-04-01T15:07:01;5.15;;;3.72;;
20830;SDS011;10576;53.556;9.868;2023-04-01T15:17:48;6.88;;;4.88;;
20830;SDS011;10576;53.556;9.868;2023-04-01T15:33:53;6.65;;;4.90;;
20830;SDS011;10576;53.556;9.868;2023-04-01T15:39:13;7.38;;;5.22;;
20830;SDS011;10576;53.556;9.868;2023-04-01T15:47:58;6.82;;;4.50;;
20830;SDS011;10576;53.556;9.868;2023-04-01T15:55:55;8.65;;;5.32;;
20830;SDS011;10576;53.556;9.868;2023-04-01T16:04:33;8.98;;;5.50;;
20830;SDS011;10576;53.556;9.868;2023-04-01T16:12:49;7.97;;;5.60;;
20830;SDS011;10576;53.556;9.868;2023-04-01T16:15:37;7.68;;;5.20;;
20830;SDS011;10576;53.556;9.868;2023-04-01T16:26:37;10.68;;;6.32;;
20830;SDS011;10576;53.556;9.868;2023-04-01T16:29:17;8.05;;;5.72;;
20830;SDS011;10576;53.556;9.868;2023-04-01T16:37:03;10.73;;;5.85;;
20830;SDS011;10576;53.556;9.868;2023-04-01T16:39:52;6.53;;;5.43;;
20830;SDS011;10576;53.556;9.868;2023-04-01T16:42:47;12.15;;;5.93;;
20830;SDS011;10576;53.556;9.868;2023-04-01T16:45:43;9.20;;;6.68;;
20830;SDS011;10576;53.556;9.868;2023-04-01T16:48:19;9.90;;;5.35;;
20830;SDS011;10576;53.556;9.868;2023-04-01T17:04:32;7.97;;;5.90;;
20830;SDS011;10576;53.556;9.868;2023-04-01T17:07:15;10.85;;;6.25;;
20830;SDS011;10576;53.556;9.868;2023-04-01T17:10:03;10.18;;;5.53;;
20830;SDS011;10576;53.556;9.868;2023-04-01T17:17:54;9.10;;;6.03;;
20830;SDS011;10576;53.556;9.868;2023-04-01T17:20:59;9.80;;;5.50;;
20830;SDS011;10576;53.556;9.868;2023-04-01T17:26:26;10.98;;;5.45;;
20830;SDS011;10576;53.556;9.868;2023-04-01T17:29:30;8.63;;;5.28;;
20830;SDS011;10576;53.556;9.868;2023-04-01T17:32:11;6.75;;;4.70;;
20830;SDS011;10576;53.556;9.868;2023-04-01T17:35:04;7.53;;;5.32;;
20830;SDS011;10576;53.556;9.868;2023-04-01T17:40:33;7.25;;;4.28;;
20830;SDS011;10576;53.556;9.868;2023-04-01T17:43:31;10.05;;;4.22;;
20830;SDS011;10576;53.556;9.868;2023-04-01T17:51:25;8.43;;;4.88;;
20830;SDS011;10576;53.556;9.868;2023-04-01T17:54:20;7.25;;;4.45;;
20830;SDS011;10576;53.556;9.868;2023-04-01T17:59:44;8.18;;;4.63;;
20830;SDS011;10576;53.556;9.868;2023-04-01T18:08:03;5.73;;;4.40;;
20830;SDS011;10576;53.556;9.868;2023-04-01T18:10:51;4.50;;;3.95;;
20830;SDS011;10576;53.556;9.868;2023-04-01T18:19:14;7.47;;;4.00;;
20830;SDS011;10576;53.556;9.868;2023-04-01T18:21:47;6.43;;;3.57;;
20830;SDS011;10576;53.556;9.868;2023-04-01T18:27:06;4.47;;;3.00;;
20830;SDS011;10576;53.556;9.868;2023-04-01T18:29:55;4.57;;;3.10;;
20830;SDS011;10576;53.556;9.868;2023-04-01T18:38:20;5.00;;;3.08;;
20830;SDS011;10576;53.556;9.868;2023-04-01T18:40:53;5.47;;;3.10;;
20830;SDS011;10576;53.556;9.868;2023-04-01T18:51:55;5.80;;;3.38;;
20830;SDS011;10576;53.556;9.868;2023-04-01T18:54:33;4.65;;;3.42;;
20830;SDS011;10576;53.556;9.868;2023-04-01T18:57:24;5.18;;;3.50;;
20830;SDS011;10576;53.556;9.868;2023-04-01T18:59:55;5.90;;;3.70;;
20830;SDS011;10576;53.556;9.868;2023-04-01T19:02:34;6.20;;;3.88;;
20830;SDS011;10576;53.556;9.868;2023-04-01T19:07:45;6.85;;;3.90;;
20830;SDS011;10576;53.556;9.868;2023-04-01T19:12:45;7.40;;;3.90;;
20830;SDS011;10576;53.556;9.868;2023-04-01T19:15:21;6.85;;;3.65;;
20830;SDS011;10576;53.556;9.868;2023-04-01T19:23:53;10.43;;;4.50;;
20830;SDS011;10576;53.556;9.868;2023-04-01T19:29:19;5.55;;;3.60;;
20830;SDS011;10576;53.556;9.868;2023-04-01T19:34:57;7.35;;;3.83;;
20830;SDS011;10576;53.556;9.868;2023-04-01T19:42:35;5.47;;;3.53;;
20830;SDS011;10576;53.556;9.868;2023-04-01T19:50:58;5.53;;;3.50;;
20830;SDS011;10576;53.556;9.868;2023-04-01T19:53:33;7.70;;;3.70;;
20830;SDS011;10576;53.556;9.868;2023-04-01T19:58:45;4.10;;;3.60;;
20830;SDS011;10576;53.556;9.868;2023-04-01T20:01:24;4.03;;;3.27;;
20830;SDS011;10576;53.556;9.868;2023-04-01T20:04:26;5.32;;;3.47;;
20830;SDS011;10576;53.556;9.868;2023-04-01T20:09:47;4.55;;;3.20;;
20830;SDS011;10576;53.556;9.868;2023-04-01T20:17:53;3.90;;;3.10;;
20830;SDS011;10576;53.556;9.868;2023-04-01T20:20:23;5.78;;;3.40;;
20830;SDS011;10576;53.556;9.868;2023-04-01T20:23:04;5.40;;;3.10;;
20830;SDS011;10576;53.556;9.868;2023-04-01T20:25:43;7.47;;;3.28;;
20830;SDS011;10576;53.556;9.868;2023-04-01T20:30:55;4.97;;;3.20;;
20830;SDS011;10576;53.556;9.868;2023-04-01T20:45:04;7.03;;;3.47;;
20830;SDS011;10576;53.556;9.868;2023-04-01T20:50:31;4.65;;;3.10;;
20830;SDS011;10576;53.556;9.868;2023-04-01T20:58:23;4.68;;;3.17;;
20830;SDS011;10576;53.556;9.868;2023-04-01T21:01:55;6.25;;;3.45;;
20830;SDS011;10576;53.556;9.868;2023-04-01T21:17:33;5.55;;;2.88;;
20830;SDS011;10576;53.556;9.868;2023-04-01T21:23:23;6.68;;;2.85;;
20830;SDS011;10576;53.556;9.868;2023-04-01T21:42:12;5.53;;;2.72;;
20830;SDS011;10576;53.556;9.868;2023-04-01T22:08:02;4.07;;;3.03;;
20830;SDS011;10576;53.556;9.868;2023-04-01T22:10:48;5.77;;;3.00;;
20830;SDS011;10576;53.556;9.868;2023-04-01T22:13:29;4.82;;;2.80;;
20830;SDS011;10576;53.556;9.868;2023-04-01T22:16:12;4.78;;;2.60;;
20830;SDS011;10576;53.556;9.868;2023-04-01T22:22:14;3.83;;;2.45;;
20830;SDS011;10576;53.556;9.868;2023-04-01T22:25:10;5.63;;;2.45;;
20830;SDS011;10576;53.556;9.868;2023-04-01T22:28:00;4.25;;;2.17;;
20830;SDS011;10576;53.556;9.868;2023-04-01T22:30:32;5.30;;;2.47;;
20830;SDS011;10576;53.556;9.868;2023-04-01T22:35:57;6.72;;;2.63;;
20830;SDS011;10576;53.556;9.868;2023-04-01T22:41:25;3.72;;;1.70;;
20830;SDS011;10576;53.556;9.868;2023-04-01T22:43:55;4.97;;;2.35;;
20830;SDS011;10576;53.556;9.868;2023-04-01T22:51:40;5.93;;;1.98;;
20830;SDS011;10576;53.556;9.868;2023-04-01T22:54:29;3.17;;;2.10;;
20830;SDS011;10576;53.556;9.868;2023-04-01T22:57:07;4.43;;;2.05;;
20830;SDS011;10576;53.556;9.868;2023-04-01T23:03:08;3.65;;;2.05;;
20830;SDS011;10576;53.556;9.868;2023-04-01T23:05:40;4.72;;;2.10;;
20830;SDS011;10576;53.556;9.868;2023-04-01T23:08:35;4.70;;;2.10;;
20830;SDS011;10576;53.556;9.868;2023-04-01T23:11:22;3.33;;;1.83;;
20830;SDS011;10576;53.556;9.868;2023-04-01T23:14:04;4.32;;;2.00;;
20830;SDS011;10576;53.556;9.868;2023-04-01T23:16:35;5.68;;;1.90;;
20830;SDS011;10576;53.556;9.868;2023-04-01T23:19:13;6.40;;;2.15;;
20830;SDS011;10576;53.556;9.868;2023-04-01T23:21:44;4.40;;;1.98;;
20830;SDS011;10576;53.556;9.868;2023-04-01T23:26:52;4.77;;;2.30;;
20830;SDS011;10576;53.556;9.868;2023-04-01T23:29:31;3.90;;;1.87;;
20830;SDS011;10576;53.556;9.868;2023-04-01T23:32:02;4.63;;;1.92;;
20830;SDS011;10576;53.556;9.868;2023-04-01T23:34:30;5.40;;;2.00;;
20830;SDS011;10576;53.556;9.868;2023-04-01T23:37:12;5.85;;;1.98;;
20830;SDS011;10576;53.556;9.868;2023-04-01T23:39:45;9.53;;;2.20;;
20830;SDS011;10576;53.556;9.868;2023-04-01T23:42:26;6.10;;;1.80;;
20830;SDS011;10576;53.556;9.868;2023-04-01T23:44:53;2.85;;;1.77;;
20830;SDS011;10576;53.556;9.868;2023-04-01T23:47:23;4.05;;;1.90;;
20830;SDS011;10576;53.556;9.868;2023-04-01T23:49:55;6.85;;;1.70;;
20830;SDS011;10576;53.556;9.868;2023-04-01T23:54:49;4.68;;;1.77;;
20830;SDS011;10576;53.556;9.868;2023-04-01T23:57:18;3.13;;;1.80;;
